CheckWX is a tool to help pilots better visualize weather data.  It is not intended as a substitute for an official pre-flight weather briefing.

02:22:30 UTC

PACV TAF
Merle K (Mudhole) Smith Airport
Cordova, Alaska, USA
PACV 182320Z 1900/1924 11010G16KT 5SM -RA BR OVC030 FM190400 11007KT 3SM -RA BR OVC015 FM191200 VRB04KT P6SM -RA OVC025

Mar-19@
00:00 UTC

Mar-19 @ 00:00 UTC

Mar-19@
04:00 UTC

Mar-19 @ 04:00 UTC

PACV 182320Z 1900/1924 11010G16KT 5SM -RA BR OVC030
Wind
  • 110° at 10 KTS
  • {Gusting to 16 KTS
Conditions
Light Rain, Mist
Cloud Levels
  • Overcast at 3,000' AGL

Mar-19@
04:00 UTC

Mar-19 @ 04:00 UTC

Mar-19@
12:00 UTC

Mar-19 @ 12:00 UTC

FM190400 11007KT 3SM -RA BR OVC015

From

From Standard forecast or significant change

Wind
  • 110° at 7 KTS
Conditions
Light Rain, Mist
Cloud Levels
  • Overcast at 1,500' AGL

Mar-19@
12:00 UTC

Mar-19 @ 12:00 UTC

Mar-20@
00:00 UTC

Mar-20 @ 00:00 UTC

FM191200 VRB04KT P6SM -RA OVC025

From

From Standard forecast or significant change

Wind
  • Variable at 4 KTS
Conditions
Light Rain
Cloud Levels
  • Overcast at 2,500' AGL